Time;durP1;ratioP1;P1;durP2;ratioP2;P2;SDS_P1;SDS_P2;PMS_P1;PMS_P2;Temp;Humidity;BMP_temperature;BMP_pressure;BME280_temperature;BME280_humidity;BME280_pressure;Samples;Min_cycle;Max_cycle;Signal;HPM_P1;HPM_P2
2023/10/11 00:03:17;;;;;;;35.30;14.10;;;17.00;99.90;;;;;;5063732;28;20052;-60
2023/10/11 00:05:45;;;;;;;36.83;14.43;;;17.00;99.90;;;;;;5058379;28;20041;-60
2023/10/11 00:08:18;;;;;;;35.80;14.68;;;17.00;99.90;;;;;;5050184;28;20091;-61
2023/10/11 00:10:53;;;;;;;44.92;16.45;;;17.00;99.90;;;;;;5060336;28;20629;-59
2023/10/11 00:13:20;;;;;;;41.42;15.73;;;17.00;99.90;;;;;;5057839;28;20045;-60
2023/10/11 00:15:51;;;;;;;40.10;14.95;;;17.00;99.90;;;;;;5052229;28;20122;-60
2023/10/11 00:18:22;;;;;;;44.85;15.77;;;17.00;99.90;;;;;;5056164;28;20079;-60
2023/10/11 00:20:59;;;;;;;43.63;15.50;;;17.00;99.90;;;;;;5045394;28;20044;-61
2023/10/11 00:23:26;;;;;;;42.30;16.23;;;17.00;99.90;;;;;;5054924;28;20028;-60
2023/10/11 00:25:54;;;;;;;46.58;15.25;;;17.10;99.90;;;;;;5046931;28;20040;-60
2023/10/11 00:28:26;;;;;;;41.30;14.73;;;17.00;99.90;;;;;;5057892;28;20211;-59
2023/10/11 00:30:57;;;;;;;37.93;15.90;;;17.00;99.90;;;;;;5057311;28;20040;-60
2023/10/11 00:33:24;;;;;;;37.25;15.85;;;17.00;99.90;;;;;;5055592;28;20052;-60
2023/10/11 00:35:51;;;;;;;45.97;15.63;;;17.00;99.90;;;;;;5058892;28;20067;-60
2023/10/11 00:38:18;;;;;;;35.10;15.18;;;17.00;99.90;;;;;;5056094;28;20242;-60
2023/10/11 00:41:39;;;;;;;42.15;15.70;;;17.00;99.90;;;;;;5047582;28;20040;-61
2023/10/11 00:43:55;;;;;;;33.00;14.13;;;17.00;99.90;;;;;;5042446;28;20045;-60
2023/10/11 00:46:36;;;;;;;39.35;15.52;;;17.00;99.90;;;;;;5057962;28;20047;-60
2023/10/11 00:49:12;;;;;;;33.80;15.43;;;17.00;99.90;;;;;;5044648;28;20501;-59
2023/10/11 00:51:41;;;;;;;34.53;15.45;;;17.00;99.90;;;;;;5056947;28;20045;-61
2023/10/11 00:54:07;;;;;;;45.67;15.95;;;17.00;99.90;;;;;;5056600;28;20032;-60
2023/10/11 00:56:33;;;;;;;44.47;15.98;;;17.00;99.90;;;;;;5056798;28;20049;-60
2023/10/11 00:59:02;;;;;;;43.10;15.88;;;17.00;99.90;;;;;;5043334;28;20539;-60
2023/10/11 01:01:28;;;;;;;44.03;15.80;;;17.00;99.90;;;;;;5054379;28;20048;-60
2023/10/11 01:03:55;;;;;;;38.42;15.07;;;17.00;99.90;;;;;;5041318;28;20033;-60
2023/10/11 01:06:25;;;;;;;43.58;15.90;;;17.00;99.90;;;;;;5045291;28;20094;-60
2023/10/11 01:08:52;;;;;;;41.25;15.32;;;17.00;99.90;;;;;;5057096;28;20087;-60
2023/10/11 01:11:18;;;;;;;37.63;15.23;;;17.00;99.90;;;;;;5055738;28;20044;-60
2023/10/11 01:13:50;;;;;;;48.92;15.73;;;17.00;99.90;;;;;;5061371;28;20082;-60
2023/10/11 01:16:18;;;;;;;43.78;15.50;;;17.00;99.90;;;;;;5059527;28;20036;-61
2023/10/11 01:18:43;;;;;;;41.35;15.88;;;17.00;99.90;;;;;;5044938;28;20040;-60
2023/10/11 01:21:12;;;;;;;41.15;15.50;;;16.90;99.90;;;;;;5060373;28;20401;-60
2023/10/11 01:23:38;;;;;;;41.80;15.65;;;16.90;99.90;;;;;;5058643;28;20588;-60
2023/10/11 01:26:07;;;;;;;38.65;15.98;;;16.90;99.90;;;;;;5060895;28;21297;-60
2023/10/11 01:28:38;;;;;;;41.25;16.80;;;16.90;99.90;;;;;;5066435;28;20396;-61
2023/10/11 01:31:10;;;;;;;36.70;14.43;;;16.90;99.90;;;;;;5047512;28;20039;-60
2023/10/11 01:33:43;;;;;;;;;;;16.90;99.90;;;;;;5048454;28;20384;-60
2023/10/11 01:36:20;;;;;;;45.55;15.15;;;16.90;99.90;;;;;;5051926;28;20046;-60
2023/10/11 01:38:47;;;;;;;41.80;14.00;;;16.90;99.90;;;;;;5064499;28;20048;-60
2023/10/11 01:41:15;;;;;;;33.38;13.75;;;16.90;99.90;;;;;;5051095;28;20066;-60
2023/10/11 01:43:41;;;;;;;39.97;15.15;;;16.90;99.90;;;;;;5049227;28;20440;-60
2023/10/11 01:46:07;;;;;;;41.97;15.68;;;16.90;99.90;;;;;;5063121;28;20093;-60
2023/10/11 01:48:33;;;;;;;38.35;14.73;;;16.90;99.90;;;;;;5061750;28;20041;-61
2023/10/11 01:51:06;;;;;;;38.05;14.73;;;16.90;99.90;;;;;;5065670;28;20713;-60
2023/10/11 01:53:32;;;;;;;39.30;14.52;;;16.90;99.90;;;;;;5051570;28;20035;-60
2023/10/11 01:55:58;;;;;;;40.83;15.75;;;16.90;99.90;;;;;;5065279;28;20044;-60
2023/10/11 01:58:24;;;;;;;34.10;14.13;;;16.90;99.90;;;;;;5047096;28;20174;-58
2023/10/11 02:00:50;;;;;;;43.03;14.80;;;16.90;99.90;;;;;;5048941;28;20047;-60
2023/10/11 02:03:15;;;;;;;36.30;14.75;;;16.90;99.90;;;;;;5045787;28;21642;-60
2023/10/11 02:05:41;;;;;;;40.90;14.80;;;16.90;99.90;;;;;;5065581;28;20077;-59
2023/10/11 02:08:11;;;;;;;37.78;13.63;;;16.90;99.90;;;;;;5069804;28;20040;-60
2023/10/11 02:10:38;;;;;;;43.42;14.98;;;16.80;99.90;;;;;;5068862;28;20383;-61
2023/10/11 02:13:06;;;;;;;41.88;15.02;;;16.80;99.90;;;;;;5065852;28;20034;-60
2023/10/11 02:15:34;;;;;;;35.85;14.20;;;16.80;99.90;;;;;;5067277;28;20498;-60
2023/10/11 02:18:07;;;;;;;35.60;14.45;;;16.80;99.90;;;;;;5067168;28;20076;-60
2023/10/11 02:20:34;;;;;;;36.47;14.15;;;16.80;99.90;;;;;;5061272;28;20083;-59
2023/10/11 02:23:00;;;;;;;33.28;13.48;;;16.80;99.90;;;;;;5037678;28;20036;-60
2023/10/11 02:25:26;;;;;;;41.38;13.75;;;16.80;99.90;;;;;;5067498;28;20058;-61
2023/10/11 02:27:54;;;;;;;38.15;13.88;;;16.80;99.90;;;;;;5062879;28;20261;-59
2023/10/11 02:30:24;;;;;;;31.65;13.23;;;16.80;99.90;;;;;;5059376;28;20040;-59
2023/10/11 02:32:58;;;;;;;35.17;13.65;;;16.80;99.90;;;;;;5061010;28;20055;-60
2023/10/11 02:35:26;;;;;;;39.80;13.57;;;16.80;99.90;;;;;;5048994;28;20145;-60
2023/10/11 02:37:55;;;;;;;32.92;14.07;;;16.80;99.90;;;;;;5052534;28;20040;-60
2023/10/11 02:40:24;;;;;;;41.50;15.00;;;16.70;99.90;;;;;;5059564;28;20049;-60
2023/10/11 02:42:56;;;;;;;30.67;12.85;;;16.70;99.90;;;;;;5065100;28;20080;-60
2023/10/11 02:45:25;;;;;;;36.33;12.82;;;16.70;99.90;;;;;;5048461;28;20043;-60
2023/10/11 02:47:59;;;;;;;40.33;14.02;;;16.70;99.90;;;;;;5059944;28;20041;-60
2023/10/11 02:50:36;;;;;;;37.72;13.00;;;16.70;99.90;;;;;;5048633;28;20397;-60
2023/10/11 02:53:12;;;;;;;34.03;13.43;;;16.70;99.90;;;;;;5049590;28;20087;-60
2023/10/11 02:55:38;;;;;;;38.80;13.32;;;16.70;99.90;;;;;;5059619;28;20407;-60
2023/10/11 02:58:07;;;;;;;43.83;13.65;;;16.60;99.90;;;;;;5057028;28;20268;-59
2023/10/11 03:00:34;;;;;;;37.45;13.75;;;16.70;99.90;;;;;;5047680;28;20396;-60
2023/10/11 03:03:00;;;;;;;34.00;12.65;;;16.70;99.90;;;;;;5037000;28;20044;-60
2023/10/11 03:05:27;;;;;;;35.30;13.13;;;16.60;99.90;;;;;;5050680;28;20075;-59
2023/10/11 03:08:13;;;;;;;36.03;13.48;;;16.60;99.90;;;;;;5058525;28;20129;-60
2023/10/11 03:10:43;;;;;;;28.45;12.23;;;16.60;99.90;;;;;;5060661;28;20055;-59
2023/10/11 03:13:11;;;;;;;31.27;13.07;;;16.60;99.90;;;;;;5058458;28;20056;-60
2023/10/11 03:15:38;;;;;;;32.08;12.60;;;16.60;99.90;;;;;;5058446;28;20119;-59
2023/10/11 03:18:07;;;;;;;36.05;13.93;;;16.60;99.90;;;;;;5049787;28;20567;-60
2023/10/11 03:20:36;;;;;;;30.48;12.07;;;16.60;99.90;;;;;;5058469;28;20044;-60
2023/10/11 03:23:10;;;;;;;39.97;13.27;;;16.60;99.90;;;;;;5059966;28;20051;-60
2023/10/11 03:25:48;;;;;;;33.28;13.20;;;16.60;99.90;;;;;;5058802;28;20475;-60
2023/10/11 03:28:15;;;;;;;37.90;13.02;;;16.60;99.90;;;;;;5046027;28;20521;-60
2023/10/11 03:30:42;;;;;;;40.05;13.98;;;16.60;99.90;;;;;;5057545;28;20036;-60
2023/10/11 03:33:09;;;;;;;37.15;12.55;;;16.60;99.90;;;;;;5048661;28;20491;-60
2023/10/11 03:35:38;;;;;;;34.95;13.55;;;16.60;99.90;;;;;;5060769;28;20549;-60
2023/10/11 03:38:16;;;;;;;33.70;13.57;;;16.60;99.90;;;;;;5057087;28;20042;-60
2023/10/11 03:41:14;;;;;;;39.10;14.63;;;16.60;99.90;;;;;;5045677;28;20056;-60
2023/10/11 03:43:41;;;;;;;36.75;13.50;;;16.60;99.90;;;;;;5045773;28;20119;-60
2023/10/11 03:46:10;;;;;;;35.42;12.60;;;16.60;99.90;;;;;;5057165;28;20427;-60
2023/10/11 03:48:44;;;;;;;36.58;13.00;;;16.60;99.90;;;;;;5058186;28;20064;-59
2023/10/11 03:51:12;;;;;;;33.67;13.50;;;16.60;99.90;;;;;;5046566;28;20094;-59
2023/10/11 03:53:39;;;;;;;38.70;13.57;;;16.60;99.90;;;;;;5059001;28;20084;-60
2023/10/11 03:56:07;;;;;;;36.50;13.15;;;16.60;99.90;;;;;;5059142;28;20050;-60
2023/10/11 03:58:33;;;;;;;33.00;12.30;;;16.60;99.90;;;;;;5032205;28;20032;-60
2023/10/11 04:01:23;;;;;;;31.35;12.02;;;16.60;99.90;;;;;;5056922;28;20522;-60
2023/10/11 04:03:50;;;;;;;34.53;12.60;;;16.60;99.90;;;;;;5044698;28;20433;-60
2023/10/11 04:06:22;;;;;;;31.52;12.18;;;16.50;99.90;;;;;;5052599;28;20522;-60
2023/10/11 04:08:56;;;;;;;39.03;13.05;;;16.50;99.90;;;;;;5044988;28;20102;-61
2023/10/11 04:11:54;;;;;;;36.30;12.57;;;16.50;99.90;;;;;;5043825;28;20040;-60
2023/10/11 04:14:25;;;;;;;32.55;12.23;;;16.50;99.90;;;;;;5054594;28;20037;-60
2023/10/11 04:16:58;;;;;;;35.13;11.95;;;16.50;99.90;;;;;;5026168;28;20048;-60
2023/10/11 04:19:23;;;;;;;34.42;12.02;;;16.50;99.90;;;;;;5032060;28;20048;-60
2023/10/11 04:24:19;;;;;;;37.47;12.00;;;16.50;99.90;;;;;;5046029;28;20040;-59
2023/10/11 04:27:45;;;;;;;33.33;11.13;;;16.50;99.90;;;;;;5058657;28;20096;-60
2023/10/11 04:29:40;;;;;;;32.22;11.65;;;16.50;99.90;;;;;;5055123;28;20052;-59
2023/10/11 04:32:19;;;;;;;38.85;11.45;;;16.50;99.90;;;;;;5047462;28;20045;-59
2023/10/11 04:34:48;;;;;;;36.00;11.35;;;16.50;99.90;;;;;;5037882;28;20926;-60
2023/10/11 04:37:43;;;;;;;35.88;12.23;;;16.50;99.90;;;;;;5058582;28;20048;-60
2023/10/11 04:40:23;;;;;;;35.65;11.45;;;16.50;99.90;;;;;;5042778;28;20186;-60
2023/10/11 04:43:04;;;;;;;35.75;12.15;;;16.50;99.90;;;;;;5058258;28;20040;-59
2023/10/11 04:45:46;;;;;;;31.60;10.63;;;16.50;99.90;;;;;;5047140;28;20044;-60
2023/10/11 04:48:18;;;;;;;31.23;10.88;;;16.50;99.90;;;;;;5055353;28;20106;-59
2023/10/11 04:50:47;;;;;;;34.85;11.00;;;16.50;99.90;;;;;;5045648;28;20076;-60
2023/10/11 04:53:17;;;;;;;28.98;10.70;;;16.50;99.90;;;;;;5054418;28;20845;-60
2023/10/11 04:55:59;;;;;;;32.65;11.55;;;16.50;99.90;;;;;;5055610;28;20039;-60
2023/10/11 04:58:49;;;;;;;33.13;11.20;;;16.50;99.90;;;;;;5041408;28;20044;-60
2023/10/11 05:01:22;;;;;;;34.67;11.35;;;16.50;99.90;;;;;;5057739;28;20125;-60
2023/10/11 05:04:00;;;;;;;30.35;10.50;;;16.50;99.90;;;;;;5053567;28;20051;-60
2023/10/11 05:06:39;;;;;;;28.92;11.25;;;16.50;99.90;;;;;;5057310;28;20048;-60
2023/10/11 05:09:21;;;;;;;31.55;11.55;;;16.50;99.90;;;;;;5058751;28;20075;-60
2023/10/11 05:11:53;;;;;;;34.38;11.18;;;16.50;99.90;;;;;;5043822;28;20109;-60
2023/10/11 05:14:40;;;;;;;31.30;11.87;;;16.50;99.90;;;;;;5050716;28;20037;-60
2023/10/11 05:19:56;;;;;;;26.98;10.88;;;16.60;99.90;;;;;;5049423;28;20139;-60
2023/10/11 05:32:48;;;;;;;38.25;11.38;;;16.50;99.90;;;;;;5043036;28;20052;-60
2023/10/11 05:51:28;;;;;;;37.08;12.68;;;16.60;99.90;;;;;;5047368;28;20048;-60
2023/10/11 05:53:55;;;;;;;37.05;12.93;;;16.60;99.90;;;;;;5043964;28;20131;-60
2023/10/11 05:56:21;;;;;;;33.75;12.27;;;16.60;99.90;;;;;;5054809;28;20514;-59
2023/10/11 05:58:54;;;;;;;32.45;12.02;;;16.50;99.90;;;;;;5038144;28;20045;-60
2023/10/11 06:01:22;;;;;;;31.95;11.93;;;16.50;99.90;;;;;;5051793;28;20451;-60
2023/10/11 06:03:51;;;;;;;38.63;12.63;;;16.60;99.90;;;;;;5037351;28;20296;-60
2023/10/11 06:06:23;;;;;;;31.73;11.25;;;16.60;99.90;;;;;;5037244;28;20058;-60
2023/10/11 06:08:53;;;;;;;28.58;12.73;;;16.60;99.90;;;;;;5051141;28;20103;-59
2023/10/11 06:11:20;;;;;;;34.80;12.95;;;16.60;99.90;;;;;;5052838;28;20051;-60
2023/10/11 06:13:47;;;;;;;42.17;12.13;;;16.60;99.90;;;;;;5044454;28;20355;-60
2023/10/11 06:16:16;;;;;;;38.97;12.25;;;16.70;99.90;;;;;;5046784;28;20840;-60
2023/10/11 06:18:57;;;;;;;38.50;12.15;;;16.70;99.90;;;;;;5037851;28;20040;-60
2023/10/11 06:21:33;;;;;;;39.97;12.52;;;16.70;99.90;;;;;;5047314;28;20446;-60
2023/10/11 06:24:06;;;;;;;31.00;11.68;;;16.70;99.90;;;;;;5050117;28;20604;-60
2023/10/11 06:29:03;;;;;;;41.38;12.32;;;16.70;99.90;;;;;;5052768;28;20510;-60
2023/10/11 06:31:39;;;;;;;39.40;11.60;;;16.80;99.90;;;;;;5056268;28;20052;-60
2023/10/11 06:34:16;;;;;;;32.78;11.50;;;16.80;99.90;;;;;;5039457;28;20045;-60
2023/10/11 06:36:48;;;;;;;35.50;12.20;;;16.80;99.90;;;;;;5057010;28;20064;-59
2023/10/11 06:42:13;;;;;;;33.28;11.43;;;16.90;99.90;;;;;;5048209;28;20044;-59
2023/10/11 06:44:47;;;;;;;31.50;11.40;;;16.90;99.90;;;;;;5050098;28;20458;-60
2023/10/11 06:47:18;;;;;;;30.85;11.35;;;16.90;99.90;;;;;;5053923;28;20616;-60
2023/10/11 06:49:48;;;;;;;28.35;10.73;;;16.90;99.90;;;;;;5052406;28;20067;-60
2023/10/11 06:52:17;;;;;;;33.50;11.20;;;16.90;99.90;;;;;;5051969;28;20783;-60
2023/10/11 06:54:47;;;;;;;30.42;10.65;;;16.90;99.90;;;;;;5049060;28;20891;-60
2023/10/11 06:57:20;;;;;;;26.30;10.90;;;16.90;99.90;;;;;;5039523;28;20040;-60
2023/10/11 06:59:57;;;;;;;25.75;10.48;;;17.00;99.90;;;;;;5055216;28;20079;-59
2023/10/11 07:02:34;;;;;;;35.40;10.90;;;17.00;99.90;;;;;;5053917;28;20040;-60
2023/10/11 07:05:07;;;;;;;30.77;10.50;;;17.00;99.90;;;;;;5039208;28;20063;-62
2023/10/11 07:07:34;;;;;;;30.17;10.75;;;17.00;99.90;;;;;;5031717;28;20051;-61
2023/10/11 07:10:05;;;;;;;30.33;10.90;;;17.00;99.90;;;;;;5053916;28;20518;-61
2023/10/11 07:12:39;;;;;;;27.75;10.02;;;17.00;99.90;;;;;;5040642;28;20044;-61
2023/10/11 07:15:09;;;;;;;25.33;10.25;;;17.10;99.90;;;;;;5054270;28;20228;-61
2023/10/11 07:17:36;;;;;;;27.08;9.52;;;17.10;99.90;;;;;;5043572;28;20040;-62
2023/10/11 07:20:19;;;;;;;24.08;9.13;;;17.10;99.90;;;;;;5054076;28;20052;-61
2023/10/11 07:22:45;;;;;;;24.63;10.27;;;17.20;99.90;;;;;;5055385;28;20495;-61
2023/10/11 07:25:36;;;;;;;20.95;9.60;;;17.20;99.90;;;;;;5036192;28;20044;-61
2023/10/11 07:28:03;;;;;;;22.98;9.35;;;17.20;99.90;;;;;;5036627;28;20517;-61
2023/10/11 07:30:37;;;;;;;25.83;10.00;;;17.30;99.90;;;;;;5049338;28;20566;-61
2023/10/11 07:33:04;;;;;;;29.77;9.80;;;17.30;99.90;;;;;;5053733;28;20039;-62
2023/10/11 07:35:32;;;;;;;36.50;11.25;;;17.30;99.90;;;;;;5052884;28;20169;-62
2023/10/11 07:38:00;;;;;;;25.63;9.68;;;17.30;99.90;;;;;;5040604;28;20089;-61
2023/10/11 07:40:45;;;;;;;25.25;9.98;;;17.40;99.90;;;;;;5042014;28;20053;-61
2023/10/11 07:43:15;;;;;;;33.08;10.30;;;17.40;99.90;;;;;;5051853;28;20066;-61
2023/10/11 07:45:47;;;;;;;26.55;10.88;;;17.50;99.90;;;;;;5019579;28;20048;-62
2023/10/11 07:48:16;;;;;;;28.50;10.55;;;17.50;99.90;;;;;;5037714;28;20040;-61
2023/10/11 07:50:42;;;;;;;25.98;10.70;;;17.50;99.90;;;;;;5050635;28;20044;-61
2023/10/11 07:53:13;;;;;;;30.75;11.10;;;17.60;99.90;;;;;;5037191;28;20045;-61
2023/10/11 07:55:40;;;;;;;38.33;11.23;;;17.60;99.90;;;;;;5034980;28;20687;-61
2023/10/11 07:58:08;;;;;;;27.60;9.93;;;17.60;99.90;;;;;;5049884;28;20531;-62
2023/10/11 08:00:41;;;;;;;28.23;10.05;;;17.70;99.90;;;;;;5053356;28;20437;-62
2023/10/11 08:03:08;;;;;;;27.42;10.52;;;17.70;99.90;;;;;;5054528;28;20611;-62
2023/10/11 08:05:44;;;;;;;26.23;10.80;;;17.70;99.90;;;;;;5055574;28;20560;-62
2023/10/11 08:08:13;;;;;;;35.53;10.20;;;17.70;99.90;;;;;;5049215;28;20041;-62
2023/10/11 08:10:44;;;;;;;36.53;10.98;;;17.70;99.90;;;;;;5023231;28;20391;-61
2023/10/11 08:13:26;;;;;;;26.75;10.40;;;17.70;99.90;;;;;;5038412;28;20068;-62
2023/10/11 08:15:59;;;;;;;33.45;11.10;;;17.70;99.90;;;;;;5037050;28;20247;-62
2023/10/11 08:18:27;;;;;;;27.73;9.93;;;17.60;99.90;;;;;;5038411;28;20047;-61
2023/10/11 08:20:53;;;;;;;26.38;10.35;;;17.60;99.90;;;;;;5040088;28;20040;-61
2023/10/11 08:23:31;;;;;;;25.75;10.52;;;17.60;99.90;;;;;;5037993;28;20059;-61
2023/10/11 08:25:57;;;;;;;29.73;9.98;;;17.70;99.90;;;;;;5036867;28;20044;-61
2023/10/11 08:28:34;;;;;;;25.15;10.32;;;17.70;99.90;;;;;;5033321;28;20096;-61
2023/10/11 08:31:00;;;;;;;24.35;10.23;;;17.70;99.90;;;;;;5028648;28;20079;-62
2023/10/11 08:33:30;;;;;;;28.73;10.98;;;17.60;99.90;;;;;;5029886;28;20033;-62
2023/10/11 08:35:59;;;;;;;28.73;10.18;;;17.60;99.90;;;;;;5025642;28;20437;-61
2023/10/11 08:38:25;;;;;;;23.00;9.77;;;17.60;99.90;;;;;;5030260;28;20076;-61
2023/10/11 08:40:57;;;;;;;27.42;10.90;;;17.60;99.90;;;;;;5031738;28;20170;-61
2023/10/11 08:43:23;;;;;;;;;;;17.70;99.90;;;;;;5030128;28;20045;-62
2023/10/11 08:45:50;;;;;;;22.85;9.57;;;17.60;99.90;;;;;;5047480;28;19920;-61
2023/10/11 08:48:17;;;;;;;24.63;9.57;;;17.60;99.90;;;;;;5033746;28;20203;-62
2023/10/11 08:50:53;;;;;;;23.13;9.95;;;17.70;99.90;;;;;;5032871;28;20048;-61
2023/10/11 08:53:26;;;;;;;25.70;9.93;;;17.60;99.90;;;;;;5033810;28;20040;-62
2023/10/11 08:55:59;;;;;;;28.90;9.90;;;17.60;99.90;;;;;;5030736;28;20279;-61
2023/10/11 08:58:29;;;;;;;15.95;8.68;;;17.60;99.90;;;;;;5030523;28;20040;-61
2023/10/11 09:00:58;;;;;;;27.42;9.80;;;17.60;99.90;;;;;;5024911;28;20129;-61
2023/10/11 09:03:26;;;;;;;19.88;8.32;;;17.60;99.90;;;;;;5033054;28;20428;-61
2023/10/11 09:05:58;;;;;;;15.98;8.05;;;17.60;99.90;;;;;;5031180;28;20423;-61
2023/10/11 09:08:33;;;;;;;16.00;8.05;;;17.60;99.90;;;;;;5030505;28;20128;-62
2023/10/11 09:11:12;;;;;;;13.45;7.18;;;17.60;99.90;;;;;;5030666;28;20577;-61
2023/10/11 09:13:41;;;;;;;17.10;7.50;;;17.60;99.90;;;;;;5029355;28;20041;-61
2023/10/11 09:16:13;;;;;;;19.23;7.57;;;17.50;99.90;;;;;;5029774;28;20075;-62
2023/10/11 09:18:41;;;;;;;13.68;6.88;;;17.50;99.90;;;;;;5046804;28;20045;-62
2023/10/11 09:21:17;;;;;;;11.88;6.95;;;17.60;99.90;;;;;;5031145;28;20049;-61
2023/10/11 09:23:47;;;;;;;10.48;6.90;;;17.60;99.90;;;;;;5031408;28;20049;-61
2023/10/11 09:26:23;;;;;;;12.85;6.18;;;17.70;99.90;;;;;;5043835;28;20052;-61
2023/10/11 09:29:02;;;;;;;10.75;5.97;;;17.70;99.90;;;;;;5034001;28;20075;-61
2023/10/11 09:31:32;;;;;;;12.35;6.35;;;17.70;99.90;;;;;;5033749;28;20044;-61
2023/10/11 09:34:07;;;;;;;13.65;6.35;;;17.80;99.90;;;;;;5030980;28;20087;-61
2023/10/11 09:36:33;;;;;;;14.10;7.10;;;17.80;99.90;;;;;;5035724;28;20036;-61
2023/10/11 09:39:02;;;;;;;10.93;6.50;;;17.90;99.90;;;;;;5033265;28;20080;-61
2023/10/11 09:41:39;;;;;;;13.10;6.68;;;17.90;99.90;;;;;;5032465;28;20056;-61
2023/10/11 09:44:10;;;;;;;14.18;6.90;;;18.00;99.90;;;;;;5048779;28;20045;-61
2023/10/11 09:46:37;;;;;;;16.00;6.82;;;18.00;99.90;;;;;;5032737;28;20586;-61
2023/10/11 09:49:04;;;;;;;12.60;6.43;;;18.00;99.90;;;;;;5030499;28;20095;-61
2023/10/11 09:51:31;;;;;;;12.40;6.20;;;18.00;99.90;;;;;;5031748;28;20155;-61
2023/10/11 09:54:07;;;;;;;10.90;6.32;;;18.00;99.90;;;;;;5034235;28;20037;-62
2023/10/11 09:56:45;;;;;;;14.70;6.82;;;18.00;99.90;;;;;;5049930;28;20044;-61
2023/10/11 09:59:22;;;;;;;16.77;7.40;;;18.00;99.90;;;;;;5036029;28;20522;-61
2023/10/11 10:01:55;;;;;;;19.83;7.28;;;18.00;99.90;;;;;;5035590;28;20495;-61
2023/10/11 10:04:50;;;;;;;14.02;6.70;;;18.00;99.90;;;;;;5036788;28;20076;-62
2023/10/11 10:07:25;;;;;;;13.35;6.38;;;18.00;99.90;;;;;;5033510;28;20503;-61
2023/10/11 10:09:53;;;;;;;13.65;6.80;;;18.10;99.90;;;;;;5037007;28;20160;-62
2023/10/11 10:12:22;;;;;;;10.60;6.40;;;18.20;99.90;;;;;;5037210;28;20116;-61
2023/10/11 10:15:13;;;;;;;12.48;6.13;;;18.20;99.90;;;;;;5034693;28;20045;-61
2023/10/11 10:18:00;;;;;;;16.15;6.40;;;18.30;99.90;;;;;;5029440;28;20061;-62
2023/10/11 10:20:41;;;;;;;15.63;7.03;;;18.30;99.90;;;;;;5033015;28;20041;-61
2023/10/11 10:23:15;;;;;;;15.07;6.82;;;18.30;99.90;;;;;;5034129;28;20383;-61
2023/10/11 10:25:48;;;;;;;11.95;5.82;;;18.30;99.90;;;;;;5033548;28;20103;-62
2023/10/11 10:28:35;;;;;;;17.55;6.43;;;18.40;99.90;;;;;;5034346;28;20053;-61
2023/10/11 10:31:13;;;;;;;15.27;6.53;;;18.40;99.90;;;;;;5029055;28;20083;-61
2023/10/11 10:33:40;;;;;;;8.82;5.70;;;18.30;99.90;;;;;;5030540;28;24306;-61
2023/10/11 10:36:21;;;;;;;13.50;6.25;;;18.40;99.90;;;;;;5029612;28;20107;-61
2023/10/11 10:41:32;;;;;;;11.85;5.15;;;18.70;99.90;;;;;;5032673;28;20072;-61
2023/10/11 10:44:11;;;;;;;11.32;5.32;;;18.80;99.90;;;;;;5031349;28;20419;-61
2023/10/11 10:46:51;;;;;;;11.20;5.45;;;19.00;99.90;;;;;;5034054;28;20094;-61
2023/10/11 10:49:23;;;;;;;10.30;5.00;;;19.10;99.90;;;;;;5030955;28;20641;-62
2023/10/11 10:51:48;;;;;;;16.33;5.97;;;19.20;99.90;;;;;;5033832;28;20098;-62
2023/10/11 10:54:17;;;;;;;10.73;5.05;;;19.20;99.90;;;;;;5035024;28;20784;-61
2023/10/11 10:56:58;;;;;;;14.40;5.10;;;19.20;99.90;;;;;;5031598;28;20448;-61
2023/10/11 10:59:26;;;;;;;14.18;5.15;;;19.20;99.90;;;;;;5028575;28;20044;-61
2023/10/11 11:01:55;;;;;;;14.35;5.45;;;19.20;99.90;;;;;;5033040;28;20128;-61
2023/10/11 11:04:27;;;;;;;9.50;4.60;;;19.20;99.90;;;;;;5030862;28;20095;-61
2023/10/11 11:06:53;;;;;;;7.88;4.40;;;19.30;99.90;;;;;;5032784;28;20940;-61
2023/10/11 11:09:25;;;;;;;9.82;4.35;;;19.30;99.90;;;;;;5034645;28;20867;-61
2023/10/11 11:11:58;;;;;;;9.32;5.15;;;19.30;99.90;;;;;;5032984;28;20091;-62
2023/10/11 11:14:25;;;;;;;11.23;4.55;;;19.30;99.90;;;;;;5030168;28;20450;-62
2023/10/11 11:16:55;;;;;;;8.77;4.20;;;19.30;99.90;;;;;;5029176;28;20506;-62
2023/10/11 11:19:27;;;;;;;12.73;4.30;;;19.20;99.90;;;;;;5033478;28;20078;-61
2023/10/11 11:22:22;;;;;;;11.90;4.50;;;19.20;99.90;;;;;;5032454;28;20392;-61
2023/10/11 11:24:52;;;;;;;10.65;3.95;;;19.20;99.90;;;;;;5030682;28;20048;-61
2023/10/11 11:27:35;;;;;;;11.52;4.05;;;19.20;99.90;;;;;;5034325;28;20060;-61
2023/10/11 11:30:33;;;;;;;8.93;4.45;;;19.20;99.90;;;;;;5056955;28;20044;-62
2023/10/11 11:33:00;;;;;;;11.98;4.40;;;19.20;99.90;;;;;;5039773;28;20641;-61
2023/10/11 11:35:29;;;;;;;11.63;4.07;;;19.20;99.90;;;;;;5058363;28;20038;-62
2023/10/11 11:38:03;;;;;;;11.30;3.88;;;19.20;99.90;;;;;;5057271;28;20074;-61
2023/10/11 11:40:36;;;;;;;11.10;3.78;;;19.20;99.90;;;;;;5060636;28;20080;-61
2023/10/11 11:43:03;;;;;;;9.93;3.92;;;19.20;99.90;;;;;;5059433;28;20043;-61
2023/10/11 11:45:35;;;;;;;8.77;3.92;;;19.20;99.90;;;;;;5057959;28;20153;-62
2023/10/11 11:48:03;;;;;;;11.85;3.90;;;19.20;99.90;;;;;;5038037;28;20033;-62
2023/10/11 11:50:37;;;;;;;13.02;3.78;;;19.20;99.90;;;;;;5037456;28;20048;-62
2023/10/11 11:53:04;;;;;;;8.60;3.78;;;19.20;99.90;;;;;;5055619;28;20028;-61
2023/10/11 11:55:35;;;;;;;12.65;3.83;;;19.20;99.90;;;;;;5054934;28;20451;-62
2023/10/11 11:58:10;;;;;;;10.02;3.72;;;19.20;99.90;;;;;;5060206;28;20472;-61
2023/10/11 12:00:40;;;;;;;9.60;3.45;;;19.20;99.90;;;;;;5042961;28;20044;-61
2023/10/11 12:03:09;;;;;;;8.85;3.67;;;19.30;99.90;;;;;;5036781;28;20040;-61
2023/10/11 12:05:40;;;;;;;11.27;4.07;;;19.30;99.90;;;;;;5049200;28;20045;-62
2023/10/11 12:08:21;;;;;;;12.77;4.03;;;19.30;99.90;;;;;;5038828;28;20052;-62
2023/10/11 12:10:49;;;;;;;8.30;3.53;;;19.30;99.90;;;;;;5038620;28;20032;-61
2023/10/11 12:13:25;;;;;;;8.05;3.45;;;19.30;99.90;;;;;;5041547;28;20486;-62
2023/10/11 12:15:55;;;;;;;10.63;3.53;;;19.30;99.90;;;;;;5041579;28;20040;-61
2023/10/11 12:18:23;;;;;;;9.20;3.25;;;19.30;99.90;;;;;;5060022;28;20498;-62
2023/10/11 12:20:48;;;;;;;12.43;3.40;;;19.40;99.90;;;;;;5059066;28;20051;-61
2023/10/11 12:23:14;;;;;;;9.65;3.60;;;19.40;99.90;;;;;;5055914;28;20432;-62
2023/10/11 12:25:40;;;;;;;8.70;3.17;;;19.50;99.90;;;;;;5057925;28;20052;-61
2023/10/11 12:28:07;;;;;;;11.40;3.80;;;19.50;99.90;;;;;;5042484;28;20084;-62
2023/10/11 12:30:35;;;;;;;12.15;4.72;;;19.50;99.90;;;;;;5058121;28;20044;-62
2023/10/11 12:33:08;;;;;;;10.50;4.22;;;19.50;99.90;;;;;;5060006;28;20510;-61
2023/10/11 12:35:42;;;;;;;7.30;3.17;;;19.50;99.90;;;;;;5042184;28;20048;-62
2023/10/11 12:38:12;;;;;;;10.73;3.78;;;19.50;99.90;;;;;;5058561;28;20053;-61
2023/10/11 12:40:41;;;;;;;9.02;3.70;;;19.50;99.90;;;;;;5055266;28;20574;-62
2023/10/11 12:43:07;;;;;;;9.20;3.45;;;19.50;99.90;;;;;;5059568;28;20559;-61
2023/10/11 12:45:37;;;;;;;7.57;3.40;;;19.40;99.90;;;;;;5038021;28;20052;-61
2023/10/11 12:48:10;;;;;;;10.25;3.90;;;19.40;99.90;;;;;;5036368;28;20730;-62
2023/10/11 12:50:39;;;;;;;8.05;3.30;;;19.40;99.90;;;;;;5057943;28;20525;-62
2023/10/11 12:53:11;;;;;;;8.80;3.45;;;19.40;99.90;;;;;;5035680;28;20145;-62
2023/10/11 12:55:45;;;;;;;10.55;3.22;;;19.30;99.90;;;;;;5053543;28;20040;-62
2023/10/11 12:58:15;;;;;;;8.98;3.30;;;19.30;99.90;;;;;;5042867;28;20044;-62
2023/10/11 13:00:51;;;;;;;10.82;3.40;;;19.30;99.90;;;;;;5052971;28;21209;-61
2023/10/11 13:03:18;;;;;;;18.52;3.63;;;19.30;99.90;;;;;;5051355;28;20051;-61
2023/10/11 13:05:47;;;;;;;13.68;3.47;;;19.20;99.90;;;;;;5031493;28;20050;-62
2023/10/11 13:08:14;;;;;;;9.95;3.10;;;19.20;99.90;;;;;;5053766;28;20116;-61
2023/10/11 13:10:45;;;;;;;9.32;3.17;;;19.20;99.90;;;;;;5022754;28;20404;-61
2023/10/11 13:13:14;;;;;;;6.95;3.47;;;19.30;99.90;;;;;;5057812;28;20431;-61
2023/10/11 13:15:41;;;;;;;10.18;3.58;;;19.30;99.90;;;;;;5037688;28;20907;-61
2023/10/11 13:18:10;;;;;;;11.52;3.35;;;19.30;99.90;;;;;;5034253;28;20051;-61
2023/10/11 13:20:37;;;;;;;10.60;3.20;;;19.30;99.90;;;;;;5054496;28;20112;-61
2023/10/11 13:23:03;;;;;;;12.57;3.75;;;19.20;99.90;;;;;;5051542;28;20037;-62
2023/10/11 13:25:28;;;;;;;8.95;3.20;;;19.20;99.90;;;;;;5038045;28;20032;-62
2023/10/11 13:27:54;;;;;;;11.85;3.72;;;19.10;99.90;;;;;;5038842;28;20052;-62
2023/10/11 13:30:22;;;;;;;10.18;3.83;;;19.10;99.90;;;;;;5058145;28;20044;-61
2023/10/11 13:32:57;;;;;;;15.45;4.03;;;19.10;99.90;;;;;;4995902;28;26173;-62
2023/10/11 13:35:23;;;;;;;8.98;3.80;;;19.10;99.90;;;;;;5029024;28;20048;-62
2023/10/11 13:37:50;;;;;;;14.13;4.28;;;19.00;99.90;;;;;;5030229;28;20407;-61